Terminal Aerodrome Forecast
Issued by NWS

Home | Current Version | Previous Version | Text Only | Print | Product List | Glossary On
Versions: 1 2 3 4 5 6 7 8 9 10 11 12 13 14 15 16 17
028
FTUS44 KJAN 302332
TAFGTR
TAF
KGTR 302332Z 0100/0124 20014G25KT P6SM BKN040
     FM010200 17008KT P6SM SCT040
     FM010800 17007KT P6SM BKN015
     FM011700 18010KT P6SM VCSH BKN025
     FM011900 19010KT P6SM -SHRA VCTS BKN035CB=

USA.gov is the U.S. government's official web portal to all federal, state and local government web resources and services.